createdAt,value
2017-11-12T00:00:24.409Z,51.16
2017-11-12T00:01:33.210Z,51.45
2017-11-12T00:02:42.036Z,50.4
2017-11-12T00:03:50.969Z,51.16
2017-11-12T00:04:59.785Z,51.35
2017-11-12T00:06:08.611Z,51.16
2017-11-12T00:07:17.436Z,50.49
2017-11-12T00:08:26.262Z,50.69
2017-11-12T00:09:35.137Z,50.4
2017-11-12T00:10:43.961Z,50.88
2017-11-12T00:11:52.785Z,50.88
2017-11-12T00:13:01.610Z,50.88
2017-11-12T00:14:10.434Z,51.16
2017-11-12T00:15:19.409Z,51.16
2017-11-12T00:16:28.233Z,51.16
2017-11-12T00:17:37.056Z,51.26
2017-11-12T00:18:45.880Z,51.16
2017-11-12T00:19:54.705Z,51.64
2017-11-12T00:21:03.829Z,51.16
2017-11-12T00:22:12.649Z,51.23
2017-11-12T00:23:21.475Z,51.32
2017-11-12T00:24:30.301Z,51.32
2017-11-12T00:25:39.127Z,51.04
2017-11-12T00:26:48.349Z,51.32
2017-11-12T00:27:57.178Z,50.95
2017-11-12T00:29:06.000Z,51.32
2017-11-12T00:30:14.828Z,51.42
2017-11-12T00:31:23.650Z,51.32
2017-11-12T00:32:32.879Z,51.23
2017-11-12T00:33:41.703Z,51.23
2017-11-12T00:34:50.526Z,51.14
2017-11-12T00:35:59.351Z,51.23
2017-11-12T00:37:08.175Z,50.76
2017-11-12T00:38:17.457Z,51.14
2017-11-12T00:39:26.283Z,51.04
2017-11-12T00:40:35.106Z,50.47
2017-11-12T00:41:43.932Z,50.69
2017-11-12T00:42:52.777Z,50.59
2017-11-12T00:44:01.880Z,50.38
2017-11-12T00:45:10.805Z,50.47
2017-11-12T00:46:19.633Z,49.9
2017-11-12T00:47:28.454Z,50.47
2017-11-12T00:48:37.278Z,50.47
2017-11-12T00:49:46.201Z,50.28
2017-11-12T00:50:55.027Z,50.47
2017-11-12T00:52:04.543Z,50.76
2017-11-12T00:53:13.370Z,50.47
2017-11-12T00:54:22.194Z,50.47
2017-11-12T00:55:31.120Z,50.47
2017-11-12T00:56:39.945Z,50.47
2017-11-12T00:57:48.769Z,50.76
2017-11-12T00:58:57.593Z,50.85
2017-11-12T01:00:06.421Z,51.32
2017-11-12T01:01:15.495Z,51.04
2017-11-12T01:02:24.666Z,51.32
2017-11-12T01:03:33.493Z,50.76
2017-11-12T01:04:42.316Z,50.76
2017-11-12T01:05:51.138Z,51.04
2017-11-12T01:07:00.213Z,51.23
2017-11-12T01:08:09.037Z,50.66
2017-11-12T01:09:18.205Z,50.76
2017-11-12T01:10:27.030Z,51.42
2017-11-12T01:11:35.855Z,51.14
2017-11-12T01:12:44.983Z,51.14
2017-11-12T01:13:54.158Z,51.23
2017-11-12T01:15:02.984Z,51.42
2017-11-12T01:16:11.808Z,51.23
2017-11-12T01:17:20.633Z,51.42
2017-11-12T01:18:29.756Z,51.23
2017-11-12T01:19:38.926Z,51.14
2017-11-12T01:20:47.751Z,51.14
2017-11-12T01:21:56.583Z,51.42
2017-11-12T01:23:05.398Z,51.32
2017-11-12T01:24:14.320Z,51.42
2017-11-12T01:25:23.144Z,51.51
2017-11-12T01:26:31.968Z,51.14
2017-11-12T01:27:40.797Z,51.51
2017-11-12T01:28:49.964Z,51.32
2017-11-12T01:29:58.791Z,51.32
2017-11-12T01:31:07.616Z,51.51
2017-11-12T01:32:16.440Z,51.23
2017-11-12T01:33:25.608Z,51.14
2017-11-12T01:34:34.784Z,51.51
2017-11-12T01:35:44.203Z,51.23
2017-11-12T01:36:53.029Z,51.14
2017-11-12T01:38:01.852Z,51.32
2017-11-12T01:39:10.673Z,51.42
2017-11-12T01:40:19.495Z,51.42
2017-11-12T01:41:28.322Z,51.42
2017-11-12T01:42:37.148Z,51.32
2017-11-12T01:43:45.973Z,51.32
2017-11-12T01:44:54.800Z,51.32
2017-11-12T01:46:03.624Z,51.32
2017-11-12T01:47:12.499Z,51.42
2017-11-12T01:48:21.324Z,51.14
2017-11-12T01:49:30.151Z,51.61
2017-11-12T01:50:39.320Z,51.14
2017-11-12T01:51:48.145Z,51.42
2017-11-12T01:52:56.974Z,50.76
2017-11-12T01:54:05.796Z,51.14
2017-11-12T01:55:14.622Z,51.32
2017-11-12T01:56:23.446Z,51.14
2017-11-12T01:57:32.272Z,51.14
2017-11-12T01:58:41.090Z,51.04
2017-11-12T01:59:49.914Z,51.04
2017-11-12T02:00:58.737Z,51.14
2017-11-12T02:02:07.564Z,51.42
2017-11-12T02:03:16.742Z,51.32
2017-11-12T02:04:25.821Z,51.14
2017-11-12T02:05:34.644Z,51.04
2017-11-12T02:06:43.468Z,51.04
2017-11-12T02:07:52.290Z,51.14
2017-11-12T02:09:01.116Z,51.14
2017-11-12T02:10:10.487Z,51.04
2017-11-12T02:11:19.657Z,51.04
2017-11-12T02:12:28.483Z,51.14
2017-11-12T02:13:37.309Z,51.04
2017-11-12T02:14:46.134Z,51.23
2017-11-12T02:15:54.965Z,51.04
2017-11-12T02:17:04.130Z,51.23
2017-11-12T02:18:12.959Z,51.14
2017-11-12T02:19:22.132Z,51.14
2017-11-12T02:20:30.956Z,51.04
2017-11-12T02:21:39.779Z,51.04
2017-11-12T02:22:48.602Z,51.14
2017-11-12T02:23:57.427Z,51.14
2017-11-12T02:25:06.252Z,51.23
2017-11-12T02:26:15.425Z,50.95
2017-11-12T02:27:24.398Z,51.23
2017-11-12T02:28:33.590Z,51.14
2017-11-12T02:29:42.404Z,51.32
2017-11-12T02:30:51.231Z,51.14
2017-11-12T02:32:00.056Z,51.23
2017-11-12T02:33:09.032Z,50.85
2017-11-12T02:34:17.857Z,51.04
2017-11-12T02:35:26.682Z,51.04
2017-11-12T02:36:35.506Z,51.32
2017-11-12T02:37:44.329Z,50.76
2017-11-12T02:38:53.503Z,51.04
2017-11-12T02:40:02.328Z,51.32
2017-11-12T02:41:11.156Z,51.04
2017-11-12T02:42:19.992Z,51.14
2017-11-12T02:43:28.835Z,51.14
2017-11-12T02:44:37.743Z,51.42
2017-11-12T02:45:46.565Z,51.04
2017-11-12T02:46:55.387Z,51.51
2017-11-12T02:48:04.213Z,51.23
2017-11-12T02:49:13.039Z,51.04
2017-11-12T02:50:21.870Z,51.14
2017-11-12T02:51:31.033Z,51.14
2017-11-12T02:52:39.857Z,51.23
2017-11-12T02:53:48.681Z,51.14
2017-11-12T02:54:57.860Z,51.32
2017-11-12T02:56:06.685Z,51.23
2017-11-12T02:57:15.507Z,51.23
2017-11-12T02:58:24.336Z,51.14
2017-11-12T02:59:33.161Z,51.04
2017-11-12T03:00:41.986Z,51.04
2017-11-12T03:01:50.809Z,51.32
2017-11-12T03:02:59.634Z,51.51
2017-11-12T03:04:08.457Z,51.42
2017-11-12T03:05:17.281Z,51.32
2017-11-12T03:06:26.107Z,51.14
2017-11-12T03:07:35.033Z,51.42
2017-11-12T03:08:43.854Z,51.42
2017-11-12T03:09:53.029Z,50.47
2017-11-12T03:11:01.853Z,51.23
2017-11-12T03:12:10.678Z,51.61
2017-11-12T03:13:19.703Z,51.14
2017-11-12T03:14:28.527Z,51.23
2017-11-12T03:15:37.351Z,51.14
2017-11-12T03:16:46.529Z,51.14
2017-11-12T03:17:55.352Z,51.42
2017-11-12T03:19:04.429Z,51.23
2017-11-12T03:20:13.253Z,51.42
2017-11-12T03:21:22.076Z,51.14
2017-11-12T03:22:30.899Z,51.32
2017-11-12T03:23:39.724Z,51.42
2017-11-12T03:24:48.554Z,51.14
2017-11-12T03:25:57.374Z,51.32
2017-11-12T03:27:06.547Z,51.42
2017-11-12T03:28:15.718Z,51.51
2017-11-12T03:29:24.540Z,51.42
2017-11-12T03:30:33.365Z,51.32
2017-11-12T03:31:42.535Z,50.95
2017-11-12T03:32:51.706Z,51.32
2017-11-12T03:34:00.529Z,51.89
2017-11-12T03:35:09.354Z,51.99
2017-11-12T03:36:18.428Z,51.51
2017-11-12T03:37:27.255Z,51.7
2017-11-12T03:38:36.127Z,51.99
2017-11-12T03:39:44.953Z,51.8
2017-11-12T03:40:53.775Z,51.14
2017-11-12T03:42:02.603Z,51.89
2017-11-12T03:43:11.425Z,51.89
2017-11-12T03:44:20.248Z,51.89
2017-11-12T03:45:29.075Z,51.7
2017-11-12T03:46:37.897Z,50.35
2017-11-12T03:47:46.881Z,51.04
2017-11-12T03:48:55.705Z,51.14
2017-11-12T03:50:04.530Z,51.42
2017-11-12T03:51:13.356Z,51.39
2017-11-12T03:52:22.178Z,51.2
2017-11-12T03:53:31.101Z,51.11
2017-11-12T03:54:39.929Z,51.11
2017-11-12T03:55:49.100Z,51.39
2017-11-12T03:56:57.933Z,51.39
2017-11-12T03:58:06.751Z,51.32
2017-11-12T03:59:15.575Z,51.32
2017-11-12T04:00:24.398Z,51.11
2017-11-12T04:01:33.221Z,51.3
2017-11-12T04:02:42.388Z,51.11
2017-11-12T04:03:51.211Z,51.58
2017-11-12T04:05:00.336Z,51.11
2017-11-12T04:06:09.158Z,51.32
2017-11-12T04:07:17.982Z,51.39
2017-11-12T04:08:26.804Z,51.2
2017-11-12T04:09:35.629Z,51.11
2017-11-12T04:10:44.461Z,51.01
2017-11-12T04:11:53.637Z,51.3
2017-11-12T04:13:02.470Z,51.2
2017-11-12T04:14:11.295Z,51.11
2017-11-12T04:15:20.117Z,50.92
2017-11-12T04:16:29.043Z,51.11
2017-11-12T04:17:37.869Z,51.11
2017-11-12T04:18:46.692Z,51.11
2017-11-12T04:19:55.516Z,51.04
2017-11-12T04:21:04.350Z,50.63
2017-11-12T04:22:13.465Z,50.92
2017-11-12T04:23:22.289Z,51.14
2017-11-12T04:24:31.113Z,50.85
2017-11-12T04:25:39.938Z,50.82
2017-11-12T04:26:48.762Z,50.82
2017-11-12T04:27:57.687Z,50.66
2017-11-12T04:29:06.515Z,51.04
2017-11-12T04:30:15.684Z,50.95
2017-11-12T04:31:24.506Z,50.92
2017-11-12T04:32:33.331Z,51.04
2017-11-12T04:33:42.253Z,50.76
2017-11-12T04:34:51.076Z,50.85
2017-11-12T04:35:59.902Z,50.85
2017-11-12T04:37:08.727Z,51.01
2017-11-12T04:38:17.551Z,50.82
2017-11-12T04:39:26.374Z,50.63
2017-11-12T04:40:35.546Z,50.73
2017-11-12T04:41:44.369Z,50.92
2017-11-12T04:42:53.194Z,51.04
2017-11-12T04:44:02.016Z,50.47
2017-11-12T04:45:10.893Z,50.47
2017-11-12T04:46:19.726Z,50.76
2017-11-12T04:47:28.556Z,50.57
2017-11-12T04:48:37.378Z,50.66
2017-11-12T04:49:46.204Z,50.47
2017-11-12T04:50:55.031Z,50.38
2017-11-12T04:52:03.858Z,50.57
2017-11-12T04:53:12.684Z,50.47
2017-11-12T04:54:21.849Z,50.47
2017-11-12T04:55:30.674Z,50.47
2017-11-12T04:56:39.801Z,50.47
2017-11-12T04:57:48.625Z,50.47
2017-11-12T04:58:57.802Z,50.95
2017-11-12T05:00:06.974Z,50.57
2017-11-12T05:01:15.797Z,50.85
2017-11-12T05:02:24.623Z,50.76
2017-11-12T05:03:33.811Z,50.57
2017-11-12T05:04:42.979Z,50.57
2017-11-12T05:05:51.804Z,50.57
2017-11-12T05:07:00.629Z,50.66
2017-11-12T05:08:09.851Z,50.76
2017-11-12T05:09:18.672Z,50.38
2017-11-12T05:10:27.495Z,50.47
2017-11-12T05:11:36.322Z,50.47
2017-11-12T05:12:45.143Z,50.47
2017-11-12T05:13:54.066Z,50.47
2017-11-12T05:15:02.892Z,50.47
2017-11-12T05:16:11.713Z,50.66
2017-11-12T05:17:20.538Z,50.38
2017-11-12T05:18:29.360Z,50.38
2017-11-12T05:19:38.288Z,50.57
2017-11-12T05:20:47.113Z,50.28
2017-11-12T05:21:55.937Z,50.28
2017-11-12T05:23:04.761Z,50.47
2017-11-12T05:24:13.586Z,50.47
2017-11-12T05:25:22.662Z,50.19
2017-11-12T05:26:31.482Z,50.47
2017-11-12T05:27:40.659Z,50.38
2017-11-12T05:28:49.483Z,50.38
2017-11-12T05:29:58.306Z,50.47
2017-11-12T05:31:07.972Z,50.38
2017-11-12T05:32:16.798Z,50.47
2017-11-12T05:33:25.622Z,50.28
2017-11-12T05:34:34.447Z,50.38
2017-11-12T05:35:43.271Z,50.47
2017-11-12T05:36:52.397Z,50.66
2017-11-12T05:38:01.221Z,50.57
2017-11-12T05:39:10.045Z,50.57
2017-11-12T05:40:18.869Z,50.47
2017-11-12T05:41:27.702Z,50.38
2017-11-12T05:42:37.121Z,50.57
2017-11-12T05:43:45.947Z,50.28
2017-11-12T05:44:54.773Z,50.38
2017-11-12T05:46:03.593Z,50.19
2017-11-12T05:47:12.418Z,50.38
2017-11-12T05:48:21.243Z,50.28
2017-11-12T05:49:30.067Z,50.38
2017-11-12T05:50:38.892Z,49.9
2017-11-12T05:51:47.721Z,50.28
2017-11-12T05:52:56.546Z,50.28
2017-11-12T05:54:05.619Z,49.9
2017-11-12T05:55:14.443Z,50.38
2017-11-12T05:56:23.267Z,50.19
2017-11-12T05:57:32.091Z,50.19
2017-11-12T05:58:40.916Z,49.81
2017-11-12T05:59:49.841Z,49.9
2017-11-12T06:00:58.666Z,49.9
2017-11-12T06:02:07.837Z,49.81
2017-11-12T06:03:16.661Z,49.9
2017-11-12T06:04:25.829Z,49.9
2017-11-12T06:05:35.056Z,49.71
2017-11-12T06:06:43.880Z,49.62
2017-11-12T06:07:52.705Z,49.81
2017-11-12T06:09:01.534Z,49.71
2017-11-12T06:10:10.356Z,49.81
2017-11-12T06:11:19.285Z,50
2017-11-12T06:12:28.108Z,50.09
2017-11-12T06:13:36.935Z,49.9
2017-11-12T06:14:45.757Z,49.9
2017-11-12T06:15:54.928Z,49.9
2017-11-12T06:17:03.752Z,50.09
2017-11-12T06:18:12.577Z,49.9
2017-11-12T06:19:21.403Z,49.71
2017-11-12T06:20:30.575Z,49.62
2017-11-12T06:21:39.401Z,50
2017-11-12T06:22:48.331Z,49.33
2017-11-12T06:23:57.156Z,49.71
2017-11-12T06:25:06.331Z,49.9
2017-11-12T06:26:15.157Z,50
2017-11-12T06:27:23.982Z,49.65
2017-11-12T06:28:33.307Z,49.62
2017-11-12T06:29:42.131Z,49.71
2017-11-12T06:30:50.954Z,50
2017-11-12T06:32:00.124Z,49.81
2017-11-12T06:33:08.951Z,49.81
2017-11-12T06:34:18.175Z,49.62
2017-11-12T06:35:27.003Z,49.62
2017-11-12T06:36:35.830Z,49.81
2017-11-12T06:37:44.652Z,49.9
2017-11-12T06:38:54.171Z,50
2017-11-12T06:40:03.145Z,49.62
2017-11-12T06:41:11.971Z,49.52
2017-11-12T06:42:20.799Z,49.71
2017-11-12T06:43:29.644Z,49.71
2017-11-12T06:44:38.452Z,50
2017-11-12T06:45:47.329Z,50
2017-11-12T06:46:56.154Z,49.9
2017-11-12T06:48:04.984Z,49.9
2017-11-12T06:49:13.808Z,49.62
2017-11-12T06:50:22.642Z,49.81
2017-11-12T06:51:31.812Z,49.74
2017-11-12T06:52:40.637Z,50
2017-11-12T06:53:49.465Z,49.9
2017-11-12T06:54:58.291Z,49.52
2017-11-12T06:56:07.118Z,49.71
2017-11-12T06:57:16.045Z,49.71
2017-11-12T06:58:25.242Z,50.12
2017-11-12T06:59:34.068Z,49.81
2017-11-12T07:00:42.895Z,49.65
2017-11-12T07:01:51.719Z,49.84
2017-11-12T07:03:00.648Z,49.93
2017-11-12T07:04:09.475Z,49.74
2017-11-12T07:05:18.302Z,49.84
2017-11-12T07:06:27.139Z,49.55
2017-11-12T07:07:35.956Z,49.93
2017-11-12T07:08:45.135Z,49.84
2017-11-12T07:09:53.968Z,50.12
2017-11-12T07:11:02.788Z,50.02
2017-11-12T07:12:11.616Z,50
2017-11-12T07:13:20.446Z,49.93
2017-11-12T07:14:29.270Z,49.74
2017-11-12T07:15:38.098Z,49.84
2017-11-12T07:16:46.921Z,49.74
2017-11-12T07:17:55.749Z,49.84
2017-11-12T07:19:04.578Z,49.93
2017-11-12T07:20:13.405Z,50.02
2017-11-12T07:21:22.238Z,50.02
2017-11-12T07:22:31.060Z,49.93
2017-11-12T07:23:39.886Z,49.84
2017-11-12T07:24:48.711Z,49.74
2017-11-12T07:25:57.690Z,50.02
2017-11-12T07:27:06.515Z,49.84
2017-11-12T07:28:15.342Z,50.02
2017-11-12T07:29:24.170Z,50.12
2017-11-12T07:30:32.994Z,50.12
2017-11-12T07:31:42.123Z,50.59
2017-11-12T07:32:50.950Z,50.4
2017-11-12T07:33:59.777Z,50.4
2017-11-12T07:35:08.601Z,50.49
2017-11-12T07:36:17.427Z,50.49
2017-11-12T07:37:26.251Z,50.49
2017-11-12T07:38:35.078Z,50.78
2017-11-12T07:39:43.904Z,51.26
2017-11-12T07:40:52.730Z,51.35
2017-11-12T07:42:01.558Z,50.69
2017-11-12T07:43:10.385Z,51.07
2017-11-12T07:44:19.212Z,50.78
2017-11-12T07:45:28.040Z,50.78
2017-11-12T07:46:36.864Z,51.07
2017-11-12T07:47:45.691Z,50.78
2017-11-12T07:48:54.909Z,51.16
2017-11-12T07:50:03.736Z,50.78
2017-11-12T07:51:12.563Z,51.07
2017-11-12T07:52:21.389Z,51.26
2017-11-12T07:53:30.215Z,51.35
2017-11-12T07:54:39.552Z,51.07
2017-11-12T07:55:48.375Z,51.26
2017-11-12T07:56:57.199Z,51.16
2017-11-12T07:58:06.028Z,50.78
2017-11-12T07:59:14.856Z,51.16
2017-11-12T08:00:23.783Z,51.07
2017-11-12T08:01:32.608Z,50.78
2017-11-12T08:02:41.435Z,50.69
2017-11-12T08:03:50.263Z,51.16
2017-11-12T08:04:59.086Z,51.16
2017-11-12T08:06:07.963Z,51.16
2017-11-12T08:07:16.791Z,51.54
2017-11-12T08:08:25.618Z,51.26
2017-11-12T08:09:34.444Z,51.35
2017-11-12T08:10:43.274Z,51.26
2017-11-12T08:11:52.402Z,51.92
2017-11-12T08:13:01.233Z,51.92
2017-11-12T08:14:10.055Z,52.01
2017-11-12T08:15:18.881Z,51.92
2017-11-12T08:16:27.711Z,52.11
2017-11-12T08:17:36.587Z,52.77
2017-11-12T08:18:45.798Z,52.11
2017-11-12T08:19:54.626Z,53.15
2017-11-12T08:21:03.452Z,53.53
2017-11-12T08:22:12.279Z,53.53
2017-11-12T08:23:21.355Z,53.53
2017-11-12T08:24:30.179Z,53.44
2017-11-12T08:25:39.014Z,53.34
2017-11-12T08:26:47.833Z,53.06
2017-11-12T08:27:56.661Z,53.46
2017-11-12T08:29:05.489Z,53.44
2017-11-12T08:30:14.315Z,53.06
2017-11-12T08:31:23.143Z,53.56
2017-11-12T08:32:32.316Z,53.81
2017-11-12T08:33:41.144Z,53.56
2017-11-12T08:34:50.375Z,53.53
2017-11-12T08:35:59.204Z,53.46
2017-11-12T08:37:08.030Z,53.46
2017-11-12T08:38:16.857Z,53.84
2017-11-12T08:39:25.685Z,53.46
2017-11-12T08:40:34.616Z,53.65
2017-11-12T08:41:43.444Z,53.56
2017-11-12T08:42:52.272Z,53.46
2017-11-12T08:44:01.108Z,53.84
2017-11-12T08:45:09.929Z,53.37
2017-11-12T08:46:18.905Z,53.65
2017-11-12T08:47:28.075Z,54.13
2017-11-12T08:48:36.907Z,54.41
2017-11-12T08:49:45.736Z,55.17
2017-11-12T08:50:54.909Z,54.98
2017-11-12T08:52:03.886Z,55.26
2017-11-12T08:53:12.716Z,55.74
2017-11-12T08:54:21.545Z,55.26
2017-11-12T08:55:30.372Z,55.26
2017-11-12T08:56:39.199Z,54.88
2017-11-12T08:57:48.477Z,55.17
2017-11-12T08:58:57.308Z,54.98
2017-11-12T09:00:06.136Z,54.98
2017-11-12T09:01:14.965Z,55.45
2017-11-12T09:02:23.794Z,56.12
2017-11-12T09:03:32.624Z,55.55
2017-11-12T09:04:41.452Z,55.93
2017-11-12T09:05:50.282Z,56.78
2017-11-12T09:06:59.109Z,56.21
2017-11-12T09:08:07.939Z,56.12
2017-11-12T09:09:17.487Z,56.3
2017-11-12T09:10:26.313Z,56.3
2017-11-12T09:11:35.145Z,57.06
2017-11-12T09:12:43.981Z,57.82
2017-11-12T09:13:52.826Z,57.54
2017-11-12T09:15:01.796Z,58.29
2017-11-12T09:16:10.624Z,58.77
2017-11-12T09:17:19.451Z,58.77
2017-11-12T09:18:28.279Z,58.01
2017-11-12T09:19:37.470Z,58.01
2017-11-12T09:20:46.639Z,58.58
2017-11-12T09:21:55.469Z,59.25
2017-11-12T09:23:04.298Z,59.08
2017-11-12T09:24:13.133Z,59.94
2017-11-12T09:25:21.952Z,58.99
2017-11-12T09:26:31.582Z,58.99
2017-11-12T09:27:40.409Z,58.42
2017-11-12T09:28:49.236Z,59.18
2017-11-12T09:29:58.420Z,59.75
2017-11-12T09:31:07.279Z,59.08
2017-11-12T09:32:16.210Z,60.03
2017-11-12T09:33:25.045Z,58.89
2017-11-12T09:34:33.866Z,59.18
2017-11-12T09:35:42.704Z,60.03
2017-11-12T09:36:51.535Z,60.6
2017-11-12T09:38:00.362Z,61.08
2017-11-12T09:39:09.189Z,60.6
2017-11-12T09:40:18.173Z,61.46
2017-11-12T09:41:27.002Z,61.17
2017-11-12T09:42:35.831Z,61.36
2017-11-12T09:43:44.811Z,61.17
2017-11-12T09:44:53.640Z,61.08
2017-11-12T09:46:02.470Z,62.4
2017-11-12T09:47:11.297Z,62.5
2017-11-12T09:48:20.126Z,62.12
2017-11-12T09:49:29.202Z,62.12
2017-11-12T09:50:38.031Z,63.17
2017-11-12T09:51:46.861Z,64.87
2017-11-12T09:52:55.693Z,65.16
2017-11-12T09:54:04.522Z,65.82
2017-11-12T09:55:13.401Z,66.01
2017-11-12T09:56:22.419Z,65.82
2017-11-12T09:57:31.767Z,66.1
2017-11-12T09:58:41.348Z,65.06
2017-11-12T09:59:50.425Z,66.48
2017-11-12T10:00:59.356Z,66.39
2017-11-12T10:02:08.185Z,66.01
2017-11-12T10:03:17.019Z,65.82
2017-11-12T10:04:25.843Z,65.53
2017-11-12T10:05:34.670Z,67.43
2017-11-12T10:06:43.648Z,67.43
2017-11-12T10:07:52.479Z,66.96
2017-11-12T10:09:01.311Z,68
2017-11-12T10:10:10.139Z,67.81
2017-11-12T10:11:18.966Z,68.6
2017-11-12T10:12:27.897Z,68.23
2017-11-12T10:13:36.730Z,69.65
2017-11-12T10:14:45.560Z,70.98
2017-11-12T10:15:54.730Z,71.36
2017-11-12T10:17:03.561Z,71.26
2017-11-12T10:18:12.541Z,70.21
2017-11-12T10:19:21.371Z,72.4
2017-11-12T10:20:30.202Z,73.92
2017-11-12T10:21:39.030Z,77.62
2017-11-12T10:22:47.859Z,78.56
2017-11-12T10:23:57.184Z,78
2017-11-12T10:25:06.012Z,78.47
2017-11-12T10:26:14.841Z,77.33
2017-11-12T10:27:23.670Z,77.14
2017-11-12T10:28:32.500Z,77.05
2017-11-12T10:29:41.428Z,76.67
2017-11-12T10:30:50.256Z,75.15
2017-11-12T10:31:59.489Z,76.48
2017-11-12T10:33:08.307Z,76.57
2017-11-12T10:34:17.137Z,79.23
2017-11-12T10:35:25.966Z,79.9
2017-11-12T10:36:34.794Z,78.85
2017-11-12T10:37:43.625Z,80.08
2017-11-12T10:38:52.454Z,79.9
2017-11-12T10:40:01.294Z,80.56
2017-11-12T10:41:10.364Z,80.94
2017-11-12T10:42:19.897Z,80.75
2017-11-12T10:43:28.727Z,81.6
2017-11-12T10:44:37.556Z,81.6
2017-11-12T10:45:46.394Z,81.79
2017-11-12T10:46:55.623Z,80.75
2017-11-12T10:48:04.453Z,81.7
2017-11-12T10:49:13.279Z,83.5
2017-11-12T10:50:22.107Z,83.12
2017-11-12T10:51:30.942Z,82.17
2017-11-12T10:52:39.822Z,82.17
2017-11-12T10:53:48.998Z,81.7
2017-11-12T10:54:57.824Z,82.55
2017-11-12T10:56:06.654Z,83.12
2017-11-12T10:57:15.481Z,79.9
2017-11-12T10:58:24.309Z,80.84
2017-11-12T10:59:33.141Z,83.26
2017-11-12T11:00:41.970Z,83.54
2017-11-12T11:01:50.801Z,83.5
2017-11-12T11:02:59.631Z,83.16
2017-11-12T11:04:08.463Z,83.54
2017-11-12T11:05:17.291Z,83.03
2017-11-12T11:06:26.117Z,80.79
2017-11-12T11:07:34.947Z,82.69
2017-11-12T11:08:43.777Z,83.69
2017-11-12T11:09:52.658Z,82.4
2017-11-12T11:11:01.487Z,83.22
2017-11-12T11:12:10.315Z,83.64
2017-11-12T11:13:19.145Z,83.69
2017-11-12T11:14:28.048Z,83.12
2017-11-12T11:15:37.575Z,82.12
2017-11-12T11:16:46.406Z,84.49
2017-11-12T11:17:55.236Z,82.88
2017-11-12T11:19:04.066Z,85.72
2017-11-12T11:20:12.893Z,84.64
2017-11-12T11:21:22.171Z,85.87
2017-11-12T11:22:31.001Z,86.68
2017-11-12T11:23:39.829Z,86.25
2017-11-12T11:24:48.669Z,85.16
2017-11-12T11:25:57.503Z,85.53
2017-11-12T11:27:06.331Z,85.25
2017-11-12T11:28:15.159Z,83.36
2017-11-12T11:29:23.994Z,86.44
2017-11-12T11:30:33.165Z,85.72
2017-11-12T11:31:41.994Z,85.97
2017-11-12T11:32:51.073Z,86.35
2017-11-12T11:33:59.903Z,86.3
2017-11-12T11:35:08.737Z,86.82
2017-11-12T11:36:17.565Z,86.25
2017-11-12T11:37:26.397Z,87.01
2017-11-12T11:38:35.729Z,86.16
2017-11-12T11:39:44.556Z,84.74
2017-11-12T11:40:53.386Z,82.69
2017-11-12T11:42:02.214Z,83.45
2017-11-12T11:43:11.045Z,85.72
2017-11-12T11:44:19.975Z,86.11
2017-11-12T11:45:28.805Z,86.01
2017-11-12T11:46:37.635Z,86.3
2017-11-12T11:47:46.463Z,85.35
2017-11-12T11:48:55.296Z,86.11
2017-11-12T11:50:04.131Z,85.44
2017-11-12T11:51:14.038Z,85.35
2017-11-12T11:52:22.876Z,86.2
2017-11-12T11:53:31.708Z,86.2
2017-11-12T11:54:40.533Z,86.68
2017-11-12T11:55:49.512Z,86.77
2017-11-12T11:56:58.340Z,87.15
2017-11-12T11:58:07.168Z,86.96
2017-11-12T11:59:16.001Z,87.53
2017-11-12T12:00:24.832Z,88.39
2017-11-12T12:01:33.963Z,86.96
2017-11-12T12:02:42.792Z,88.48
2017-11-12T12:03:51.624Z,88.39
2017-11-12T12:05:00.455Z,89.43
2017-11-12T12:06:09.634Z,89.43
2017-11-12T12:07:18.719Z,88.48
2017-11-12T12:08:27.549Z,89.72
2017-11-12T12:09:36.379Z,88.67
2017-11-12T12:10:45.208Z,89.24
2017-11-12T12:11:54.035Z,89.14
2017-11-12T12:13:02.912Z,89.33
2017-11-12T12:14:11.741Z,89.72
2017-11-12T12:15:20.575Z,89.05
2017-11-12T12:16:29.408Z,88.86
2017-11-12T12:17:38.238Z,88.29
2017-11-12T12:18:47.216Z,88.86
2017-11-12T12:19:56.047Z,87.62
2017-11-12T12:21:04.874Z,89.14
2017-11-12T12:22:13.705Z,87.72
2017-11-12T12:23:22.886Z,89.81
2017-11-12T12:24:32.164Z,90.09
2017-11-12T12:25:40.991Z,88.2
2017-11-12T12:26:49.829Z,90.66
2017-11-12T12:27:58.658Z,90.57
2017-11-12T12:29:07.488Z,88.2
2017-11-12T12:30:16.569Z,90.38
2017-11-12T12:31:25.400Z,90.28
2017-11-12T12:32:34.226Z,90.47
2017-11-12T12:33:43.055Z,90.66
2017-11-12T12:34:51.885Z,89.62
2017-11-12T12:36:00.764Z,90
2017-11-12T12:37:09.594Z,89.72
2017-11-12T12:38:18.428Z,90.85
2017-11-12T12:39:27.267Z,90.47
2017-11-12T12:40:36.106Z,92.75
2017-11-12T12:41:45.099Z,93.65
2017-11-12T12:42:53.941Z,94.93
2017-11-12T12:44:02.782Z,95.22
2017-11-12T12:45:11.623Z,95.51
2017-11-12T12:46:20.811Z,95.7
2017-11-12T12:47:29.658Z,95.03
2017-11-12T12:48:38.491Z,95.51
2017-11-12T12:49:47.674Z,95.7
2017-11-12T12:50:56.512Z,95.7
2017-11-12T12:52:05.353Z,95.79
2017-11-12T12:53:14.791Z,95.89
2017-11-12T12:54:23.632Z,95.51
2017-11-12T12:55:32.474Z,95.89
2017-11-12T12:56:41.660Z,95.41
2017-11-12T12:57:50.501Z,95.79
2017-11-12T12:58:59.683Z,95.41
2017-11-12T13:00:08.511Z,95.7
2017-11-12T13:01:17.340Z,97.69
2017-11-12T13:02:26.171Z,97.97
2017-11-12T13:03:35.002Z,97.97
2017-11-12T13:04:43.833Z,97.78
2017-11-12T13:05:52.662Z,97.74
2017-11-12T13:07:01.493Z,97.88
2017-11-12T13:08:10.323Z,97.5
2017-11-12T13:09:19.151Z,98.16
2017-11-12T13:10:28.032Z,98.26
2017-11-12T13:11:36.861Z,97.88
2017-11-12T13:12:46.033Z,97.83
2017-11-12T13:13:54.867Z,94.89
2017-11-12T13:15:03.696Z,98.5
2017-11-12T13:16:12.628Z,98.69
2017-11-12T13:17:21.457Z,96.98
2017-11-12T13:18:30.285Z,96.79
2017-11-12T13:19:39.117Z,97.74
2017-11-12T13:20:47.949Z,98.92
2017-11-12T13:21:56.930Z,97.6
2017-11-12T13:23:05.761Z,96.36
2017-11-12T13:24:14.609Z,97.97
2017-11-12T13:25:23.440Z,98.45
2017-11-12T13:26:32.270Z,97.97
2017-11-12T13:27:41.751Z,98.54
2017-11-12T13:28:50.581Z,97.97
2017-11-12T13:29:59.410Z,97.02
2017-11-12T13:31:08.237Z,98.35
2017-11-12T13:32:17.065Z,97.97
2017-11-12T13:33:26.049Z,97.97
2017-11-12T13:34:34.878Z,95.89
2017-11-12T13:35:43.759Z,96.64
2017-11-12T13:36:52.640Z,97.69
2017-11-12T13:38:01.468Z,96.83
2017-11-12T13:39:10.545Z,95.51
2017-11-12T13:40:19.378Z,96.74
2017-11-12T13:41:28.555Z,95.89
2017-11-12T13:42:37.384Z,95.79
2017-11-12T13:43:46.222Z,95.89
2017-11-12T13:44:55.297Z,94.93
2017-11-12T13:46:04.151Z,95.89
2017-11-12T13:47:12.955Z,95.7
2017-11-12T13:48:22.142Z,95.7
2017-11-12T13:49:31.319Z,95.6
2017-11-12T13:50:40.400Z,95.7
2017-11-12T13:51:49.227Z,95.7
2017-11-12T13:52:58.056Z,95.7
2017-11-12T13:54:06.884Z,95.03
2017-11-12T13:55:15.720Z,94.74
2017-11-12T13:56:24.656Z,94.93
2017-11-12T13:57:33.483Z,91.99
2017-11-12T13:58:42.309Z,93.8
2017-11-12T13:59:51.146Z,93.04
2017-11-12T14:00:59.969Z,93.6
2017-11-12T14:02:08.948Z,93.7
2017-11-12T14:03:17.787Z,93.89
2017-11-12T14:04:26.613Z,93.7
2017-11-12T14:05:35.442Z,93.6
2017-11-12T14:06:44.273Z,93.13
2017-11-12T14:07:53.207Z,93.8
2017-11-12T14:09:02.044Z,94.37
2017-11-12T14:10:10.861Z,92.85
2017-11-12T14:11:19.687Z,93.04
2017-11-12T14:12:28.516Z,93.13
2017-11-12T14:13:37.497Z,93.13
2017-11-12T14:14:46.677Z,93.13
2017-11-12T14:15:55.512Z,93.89
2017-11-12T14:17:04.338Z,93.13
2017-11-12T14:18:13.169Z,93.13
2017-11-12T14:19:22.151Z,92.37
2017-11-12T14:20:31.326Z,93.7
2017-11-12T14:21:40.149Z,93.7
2017-11-12T14:22:48.977Z,93.23
2017-11-12T14:23:57.810Z,93.7
2017-11-12T14:25:07.040Z,93.6
2017-11-12T14:26:15.869Z,93.13
2017-11-12T14:27:24.696Z,92.94
2017-11-12T14:28:33.524Z,94.08
2017-11-12T14:29:42.355Z,93.04
2017-11-12T14:30:51.283Z,91.42
2017-11-12T14:32:00.111Z,92.75
2017-11-12T14:33:08.941Z,92.66
2017-11-12T14:34:17.770Z,92.66
2017-11-12T14:35:26.596Z,92.18
2017-11-12T14:36:35.476Z,91.99
2017-11-12T14:37:44.305Z,92.47
2017-11-12T14:38:53.131Z,92.37
2017-11-12T14:40:01.962Z,92.56
2017-11-12T14:41:10.796Z,92.66
2017-11-12T14:42:19.726Z,92.56
2017-11-12T14:43:28.553Z,92.47
2017-11-12T14:44:37.381Z,91.99
2017-11-12T14:45:46.213Z,92.66
2017-11-12T14:46:55.043Z,92.85
2017-11-12T14:48:03.876Z,93.7
2017-11-12T14:49:12.701Z,92.94
2017-11-12T14:50:21.533Z,91.71
2017-11-12T14:51:30.363Z,93.04